sensor_id;sensor_type;location;lat;lon;timestamp;P1;durP1;ratioP1;P2;durP2;ratioP2
23720;SDS011;42950;52.134;5.578;2022-12-29T00:02:18;2.53;;;2.25;;
23720;SDS011;42950;52.134;5.578;2022-12-29T00:04:44;3.00;;;2.00;;
23720;SDS011;42950;52.134;5.578;2022-12-29T00:07:09;2.58;;;2.28;;
23720;SDS011;42950;52.134;5.578;2022-12-29T00:09:35;2.47;;;2.10;;
23720;SDS011;42950;52.134;5.578;2022-12-29T00:12:02;2.33;;;1.70;;
23720;SDS011;42950;52.134;5.578;2022-12-29T00:14:29;2.00;;;1.73;;
23720;SDS011;42950;52.134;5.578;2022-12-29T00:17:13;2.15;;;1.95;;
23720;SDS011;42950;52.134;5.578;2022-12-29T00:19:39;3.65;;;2.05;;
23720;SDS011;42950;52.134;5.578;2022-12-29T00:22:23;4.57;;;1.98;;
23720;SDS011;42950;52.134;5.578;2022-12-29T00:25:08;2.38;;;1.80;;
23720;SDS011;42950;52.134;5.578;2022-12-29T00:27:55;1.67;;;1.58;;
23720;SDS011;42950;52.134;5.578;2022-12-29T00:30:39;2.28;;;2.08;;
23720;SDS011;42950;52.134;5.578;2022-12-29T00:33:26;2.97;;;1.90;;
23720;SDS011;42950;52.134;5.578;2022-12-29T00:39:16;2.70;;;1.70;;
23720;SDS011;42950;52.134;5.578;2022-12-29T00:42:05;3.42;;;2.00;;
23720;SDS011;42950;52.134;5.578;2022-12-29T00:45:04;3.33;;;2.22;;
23720;SDS011;42950;52.134;5.578;2022-12-29T00:47:30;1.95;;;1.85;;
23720;SDS011;42950;52.134;5.578;2022-12-29T00:49:56;2.05;;;1.80;;
23720;SDS011;42950;52.134;5.578;2022-12-29T00:52:22;2.90;;;1.63;;
23720;SDS011;42950;52.134;5.578;2022-12-29T00:54:47;2.15;;;1.95;;
23720;SDS011;42950;52.134;5.578;2022-12-29T00:57:13;2.55;;;2.00;;
23720;SDS011;42950;52.134;5.578;2022-12-29T00:59:39;1.90;;;1.80;;
23720;SDS011;42950;52.134;5.578;2022-12-29T01:02:06;3.60;;;1.75;;
23720;SDS011;42950;52.134;5.578;2022-12-29T01:04:33;1.60;;;1.50;;
23720;SDS011;42950;52.134;5.578;2022-12-29T01:06:58;3.88;;;1.80;;
23720;SDS011;42950;52.134;5.578;2022-12-29T01:09:24;3.10;;;1.70;;
23720;SDS011;42950;52.134;5.578;2022-12-29T01:12:09;3.20;;;1.60;;
23720;SDS011;42950;52.134;5.578;2022-12-29T01:14:35;3.72;;;1.40;;
23720;SDS011;42950;52.134;5.578;2022-12-29T01:17:02;2.22;;;1.30;;
23720;SDS011;42950;52.134;5.578;2022-12-29T01:19:29;2.53;;;1.33;;
23720;SDS011;42950;52.134;5.578;2022-12-29T01:21:55;2.40;;;1.20;;
23720;SDS011;42950;52.134;5.578;2022-12-29T01:24:21;2.47;;;1.38;;
23720;SDS011;42950;52.134;5.578;2022-12-29T01:26:47;2.60;;;1.40;;
23720;SDS011;42950;52.134;5.578;2022-12-29T01:29:13;1.83;;;1.20;;
23720;SDS011;42950;52.134;5.578;2022-12-29T01:31:39;4.20;;;1.60;;
23720;SDS011;42950;52.134;5.578;2022-12-29T01:34:05;2.47;;;1.10;;
23720;SDS011;42950;52.134;5.578;2022-12-29T01:36:32;1.60;;;1.00;;
23720;SDS011;42950;52.134;5.578;2022-12-29T01:38:58;2.40;;;1.20;;
23720;SDS011;42950;52.134;5.578;2022-12-29T01:41:25;1.50;;;1.10;;
23720;SDS011;42950;52.134;5.578;2022-12-29T01:43:55;2.65;;;1.10;;
23720;SDS011;42950;52.134;5.578;2022-12-29T01:49:15;3.17;;;1.10;;
23720;SDS011;42950;52.134;5.578;2022-12-29T01:51:45;2.00;;;0.95;;
23720;SDS011;42950;52.134;5.578;2022-12-29T01:54:22;2.10;;;1.40;;
23720;SDS011;42950;52.134;5.578;2022-12-29T01:57:05;2.25;;;1.13;;
23720;SDS011;42950;52.134;5.578;2022-12-29T02:00:04;1.42;;;1.10;;
23720;SDS011;42950;52.134;5.578;2022-12-29T02:02:33;1.95;;;1.17;;
23720;SDS011;42950;52.134;5.578;2022-12-29T02:04:59;1.88;;;1.20;;
23720;SDS011;42950;52.134;5.578;2022-12-29T02:07:32;2.17;;;1.60;;
23720;SDS011;42950;52.134;5.578;2022-12-29T02:09:58;1.77;;;1.40;;
23720;SDS011;42950;52.134;5.578;2022-12-29T02:12:26;2.10;;;1.15;;
23720;SDS011;42950;52.134;5.578;2022-12-29T02:14:53;1.42;;;1.33;;
23720;SDS011;42950;52.134;5.578;2022-12-29T02:36:55;1.88;;;1.35;;
23720;SDS011;42950;52.134;5.578;2022-12-29T02:47:36;2.60;;;0.93;;
23720;SDS011;42950;52.134;5.578;2022-12-29T02:55:35;4.63;;;0.70;;
23720;SDS011;42950;52.134;5.578;2022-12-29T02:58:22;2.42;;;0.70;;
23720;SDS011;42950;52.134;5.578;2022-12-29T03:08:44;4.88;;;0.85;;
23720;SDS011;42950;52.134;5.578;2022-12-29T03:14:35;5.32;;;0.90;;
23720;SDS011;42950;52.134;5.578;2022-12-29T03:20:06;1.48;;;0.82;;
23720;SDS011;42950;52.134;5.578;2022-12-29T03:22:36;1.83;;;1.10;;
23720;SDS011;42950;52.134;5.578;2022-12-29T03:25:08;2.28;;;1.10;;
23720;SDS011;42950;52.134;5.578;2022-12-29T03:27:42;2.63;;;1.00;;
23720;SDS011;42950;52.134;5.578;2022-12-29T03:30:12;2.17;;;0.93;;
23720;SDS011;42950;52.134;5.578;2022-12-29T03:32:43;3.05;;;1.10;;
23720;SDS011;42950;52.134;5.578;2022-12-29T03:35:13;2.65;;;1.08;;
23720;SDS011;42950;52.134;5.578;2022-12-29T03:37:43;2.00;;;0.90;;
23720;SDS011;42950;52.134;5.578;2022-12-29T03:40:15;1.83;;;1.00;;
23720;SDS011;42950;52.134;5.578;2022-12-29T03:42:41;1.77;;;0.80;;
23720;SDS011;42950;52.134;5.578;2022-12-29T03:45:09;2.28;;;0.90;;
23720;SDS011;42950;52.134;5.578;2022-12-29T03:47:35;3.42;;;1.10;;
23720;SDS011;42950;52.134;5.578;2022-12-29T03:50:01;2.88;;;1.10;;
23720;SDS011;42950;52.134;5.578;2022-12-29T03:52:26;1.98;;;0.85;;
23720;SDS011;42950;52.134;5.578;2022-12-29T03:54:52;3.60;;;1.17;;
23720;SDS011;42950;52.134;5.578;2022-12-29T03:57:19;2.20;;;0.90;;
23720;SDS011;42950;52.134;5.578;2022-12-29T03:59:44;2.58;;;0.90;;
23720;SDS011;42950;52.134;5.578;2022-12-29T04:02:10;3.95;;;0.80;;
23720;SDS011;42950;52.134;5.578;2022-12-29T04:04:36;2.58;;;0.70;;
23720;SDS011;42950;52.134;5.578;2022-12-29T04:07:01;1.65;;;0.80;;
23720;SDS011;42950;52.134;5.578;2022-12-29T04:09:27;4.28;;;1.15;;
23720;SDS011;42950;52.134;5.578;2022-12-29T04:11:52;3.25;;;1.02;;
23720;SDS011;42950;52.134;5.578;2022-12-29T04:14:18;2.47;;;0.73;;
23720;SDS011;42950;52.134;5.578;2022-12-29T04:16:44;3.13;;;1.10;;
23720;SDS011;42950;52.134;5.578;2022-12-29T04:19:09;2.95;;;1.00;;
23720;SDS011;42950;52.134;5.578;2022-12-29T04:21:35;2.38;;;0.90;;
23720;SDS011;42950;52.134;5.578;2022-12-29T04:24:01;3.53;;;1.00;;
23720;SDS011;42950;52.134;5.578;2022-12-29T04:26:26;4.72;;;1.00;;
23720;SDS011;42950;52.134;5.578;2022-12-29T04:28:52;2.60;;;1.00;;
23720;SDS011;42950;52.134;5.578;2022-12-29T04:31:17;4.78;;;1.30;;
23720;SDS011;42950;52.134;5.578;2022-12-29T04:33:44;4.57;;;0.90;;
23720;SDS011;42950;52.134;5.578;2022-12-29T04:36:10;3.08;;;1.10;;
23720;SDS011;42950;52.134;5.578;2022-12-29T04:38:35;5.30;;;1.02;;
23720;SDS011;42950;52.134;5.578;2022-12-29T04:41:01;4.25;;;1.05;;
23720;SDS011;42950;52.134;5.578;2022-12-29T04:43:27;4.97;;;1.30;;
23720;SDS011;42950;52.134;5.578;2022-12-29T04:45:53;4.90;;;1.05;;
23720;SDS011;42950;52.134;5.578;2022-12-29T04:48:19;5.03;;;1.30;;
23720;SDS011;42950;52.134;5.578;2022-12-29T04:50:46;9.73;;;1.60;;
23720;SDS011;42950;52.134;5.578;2022-12-29T04:53:13;6.30;;;1.40;;
23720;SDS011;42950;52.134;5.578;2022-12-29T04:55:39;9.40;;;1.42;;
23720;SDS011;42950;52.134;5.578;2022-12-29T04:58:04;7.40;;;1.13;;
23720;SDS011;42950;52.134;5.578;2022-12-29T05:00:31;5.45;;;1.23;;
23720;SDS011;42950;52.134;5.578;2022-12-29T05:02:57;6.90;;;1.40;;
23720;SDS011;42950;52.134;5.578;2022-12-29T05:05:23;7.47;;;1.52;;
23720;SDS011;42950;52.134;5.578;2022-12-29T05:07:48;7.60;;;1.58;;
23720;SDS011;42950;52.134;5.578;2022-12-29T05:10:14;8.65;;;2.10;;
23720;SDS011;42950;52.134;5.578;2022-12-29T05:12:40;7.95;;;1.70;;
23720;SDS011;42950;52.134;5.578;2022-12-29T05:15:06;11.82;;;2.20;;
23720;SDS011;42950;52.134;5.578;2022-12-29T05:17:33;4.80;;;1.45;;
23720;SDS011;42950;52.134;5.578;2022-12-29T05:19:59;9.80;;;1.63;;
23720;SDS011;42950;52.134;5.578;2022-12-29T05:22:25;9.23;;;1.80;;
23720;SDS011;42950;52.134;5.578;2022-12-29T05:24:50;7.97;;;1.80;;
23720;SDS011;42950;52.134;5.578;2022-12-29T05:27:16;11.70;;;1.70;;
23720;SDS011;42950;52.134;5.578;2022-12-29T05:29:42;10.52;;;2.00;;
23720;SDS011;42950;52.134;5.578;2022-12-29T05:32:08;10.40;;;1.83;;
23720;SDS011;42950;52.134;5.578;2022-12-29T05:34:33;9.65;;;1.55;;
23720;SDS011;42950;52.134;5.578;2022-12-29T05:36:59;10.10;;;1.70;;
23720;SDS011;42950;52.134;5.578;2022-12-29T05:39:24;9.70;;;1.92;;
23720;SDS011;42950;52.134;5.578;2022-12-29T05:41:50;9.73;;;1.65;;
23720;SDS011;42950;52.134;5.578;2022-12-29T05:44:16;11.02;;;2.08;;
23720;SDS011;42950;52.134;5.578;2022-12-29T05:46:41;9.88;;;1.63;;
23720;SDS011;42950;52.134;5.578;2022-12-29T05:49:09;9.88;;;1.90;;
23720;SDS011;42950;52.134;5.578;2022-12-29T05:51:36;10.20;;;1.77;;
23720;SDS011;42950;52.134;5.578;2022-12-29T05:54:01;7.22;;;1.40;;
23720;SDS011;42950;52.134;5.578;2022-12-29T05:56:27;10.23;;;1.85;;
23720;SDS011;42950;52.134;5.578;2022-12-29T05:58:52;9.73;;;1.83;;
23720;SDS011;42950;52.134;5.578;2022-12-29T06:01:18;12.45;;;2.10;;
23720;SDS011;42950;52.134;5.578;2022-12-29T06:03:44;10.20;;;1.77;;
23720;SDS011;42950;52.134;5.578;2022-12-29T06:06:09;12.20;;;1.77;;
23720;SDS011;42950;52.134;5.578;2022-12-29T06:08:35;12.23;;;1.90;;
23720;SDS011;42950;52.134;5.578;2022-12-29T06:11:00;10.27;;;1.85;;
23720;SDS011;42950;52.134;5.578;2022-12-29T06:13:26;8.90;;;1.58;;
23720;SDS011;42950;52.134;5.578;2022-12-29T06:15:52;8.40;;;1.90;;
23720;SDS011;42950;52.134;5.578;2022-12-29T06:18:18;7.97;;;1.60;;
23720;SDS011;42950;52.134;5.578;2022-12-29T06:20:44;9.25;;;1.90;;
23720;SDS011;42950;52.134;5.578;2022-12-29T06:23:09;7.57;;;1.80;;
23720;SDS011;42950;52.134;5.578;2022-12-29T06:25:37;5.60;;;1.20;;
23720;SDS011;42950;52.134;5.578;2022-12-29T06:28:02;11.85;;;2.10;;
23720;SDS011;42950;52.134;5.578;2022-12-29T06:30:28;7.07;;;1.55;;
23720;SDS011;42950;52.134;5.578;2022-12-29T06:32:54;12.48;;;2.13;;
23720;SDS011;42950;52.134;5.578;2022-12-29T06:35:21;8.82;;;1.70;;
23720;SDS011;42950;52.134;5.578;2022-12-29T06:37:47;9.35;;;1.40;;
23720;SDS011;42950;52.134;5.578;2022-12-29T06:40:13;10.63;;;1.63;;
23720;SDS011;42950;52.134;5.578;2022-12-29T06:42:39;9.27;;;1.50;;
23720;SDS011;42950;52.134;5.578;2022-12-29T06:45:05;9.60;;;2.10;;
23720;SDS011;42950;52.134;5.578;2022-12-29T06:47:33;7.35;;;1.88;;
23720;SDS011;42950;52.134;5.578;2022-12-29T06:50:00;9.35;;;2.15;;
23720;SDS011;42950;52.134;5.578;2022-12-29T06:52:25;9.23;;;2.10;;
23720;SDS011;42950;52.134;5.578;2022-12-29T06:54:53;10.20;;;2.20;;
23720;SDS011;42950;52.134;5.578;2022-12-29T06:57:19;9.52;;;1.75;;
23720;SDS011;42950;52.134;5.578;2022-12-29T06:59:45;11.00;;;1.80;;
23720;SDS011;42950;52.134;5.578;2022-12-29T07:02:11;8.50;;;1.45;;
23720;SDS011;42950;52.134;5.578;2022-12-29T07:04:36;12.90;;;2.33;;
23720;SDS011;42950;52.134;5.578;2022-12-29T07:07:02;8.32;;;1.50;;
23720;SDS011;42950;52.134;5.578;2022-12-29T07:09:28;7.88;;;1.50;;
23720;SDS011;42950;52.134;5.578;2022-12-29T07:11:53;9.18;;;2.40;;
23720;SDS011;42950;52.134;5.578;2022-12-29T07:14:19;12.30;;;2.45;;
23720;SDS011;42950;52.134;5.578;2022-12-29T07:16:45;12.60;;;2.35;;
23720;SDS011;42950;52.134;5.578;2022-12-29T07:19:10;11.70;;;2.28;;
23720;SDS011;42950;52.134;5.578;2022-12-29T07:21:36;8.38;;;1.80;;
23720;SDS011;42950;52.134;5.578;2022-12-29T07:24:01;8.40;;;1.75;;
23720;SDS011;42950;52.134;5.578;2022-12-29T07:26:27;11.15;;;1.98;;
23720;SDS011;42950;52.134;5.578;2022-12-29T07:28:53;10.43;;;2.10;;
23720;SDS011;42950;52.134;5.578;2022-12-29T07:31:21;11.57;;;2.13;;
23720;SDS011;42950;52.134;5.578;2022-12-29T07:33:47;7.90;;;1.70;;
23720;SDS011;42950;52.134;5.578;2022-12-29T07:36:14;10.15;;;2.00;;
23720;SDS011;42950;52.134;5.578;2022-12-29T07:38:40;6.90;;;1.83;;
23720;SDS011;42950;52.134;5.578;2022-12-29T07:41:07;8.27;;;1.85;;
23720;SDS011;42950;52.134;5.578;2022-12-29T07:43:33;9.55;;;1.90;;
23720;SDS011;42950;52.134;5.578;2022-12-29T07:45:59;10.25;;;1.92;;
23720;SDS011;42950;52.134;5.578;2022-12-29T07:48:25;10.68;;;2.17;;
23720;SDS011;42950;52.134;5.578;2022-12-29T07:50:50;7.28;;;1.73;;
23720;SDS011;42950;52.134;5.578;2022-12-29T07:53:17;11.43;;;2.35;;
23720;SDS011;42950;52.134;5.578;2022-12-29T07:55:42;8.52;;;1.70;;
23720;SDS011;42950;52.134;5.578;2022-12-29T07:58:08;5.45;;;1.35;;
23720;SDS011;42950;52.134;5.578;2022-12-29T08:00:34;9.13;;;1.95;;
23720;SDS011;42950;52.134;5.578;2022-12-29T08:02:59;11.05;;;2.35;;
23720;SDS011;42950;52.134;5.578;2022-12-29T08:05:25;9.85;;;2.05;;
23720;SDS011;42950;52.134;5.578;2022-12-29T08:07:50;7.85;;;2.30;;
23720;SDS011;42950;52.134;5.578;2022-12-29T08:10:16;7.40;;;1.80;;
23720;SDS011;42950;52.134;5.578;2022-12-29T08:12:42;8.10;;;1.70;;
23720;SDS011;42950;52.134;5.578;2022-12-29T08:15:09;12.27;;;1.98;;
23720;SDS011;42950;52.134;5.578;2022-12-29T08:17:35;9.85;;;1.80;;
23720;SDS011;42950;52.134;5.578;2022-12-29T08:20:01;9.75;;;2.20;;
23720;SDS011;42950;52.134;5.578;2022-12-29T08:22:27;10.30;;;2.05;;
23720;SDS011;42950;52.134;5.578;2022-12-29T08:24:52;10.65;;;1.88;;
23720;SDS011;42950;52.134;5.578;2022-12-29T08:27:18;10.18;;;1.80;;
23720;SDS011;42950;52.134;5.578;2022-12-29T08:29:44;11.75;;;2.53;;
23720;SDS011;42950;52.134;5.578;2022-12-29T08:32:10;15.55;;;2.20;;
23720;SDS011;42950;52.134;5.578;2022-12-29T08:34:36;11.10;;;2.40;;
23720;SDS011;42950;52.134;5.578;2022-12-29T08:37:01;15.85;;;2.42;;
23720;SDS011;42950;52.134;5.578;2022-12-29T08:39:27;8.60;;;1.63;;
23720;SDS011;42950;52.134;5.578;2022-12-29T08:41:53;10.98;;;2.03;;
23720;SDS011;42950;52.134;5.578;2022-12-29T08:44:19;12.25;;;2.28;;
23720;SDS011;42950;52.134;5.578;2022-12-29T08:46:45;10.55;;;1.98;;
23720;SDS011;42950;52.134;5.578;2022-12-29T08:49:10;14.75;;;2.03;;
23720;SDS011;42950;52.134;5.578;2022-12-29T08:51:36;10.85;;;1.88;;
23720;SDS011;42950;52.134;5.578;2022-12-29T08:54:01;13.50;;;2.22;;
23720;SDS011;42950;52.134;5.578;2022-12-29T08:56:27;9.18;;;1.77;;
23720;SDS011;42950;52.134;5.578;2022-12-29T08:58:53;9.65;;;2.20;;
23720;SDS011;42950;52.134;5.578;2022-12-29T09:01:18;9.70;;;2.05;;
23720;SDS011;42950;52.134;5.578;2022-12-29T09:03:44;13.82;;;1.85;;
23720;SDS011;42950;52.134;5.578;2022-12-29T09:06:10;10.88;;;1.80;;
23720;SDS011;42950;52.134;5.578;2022-12-29T09:08:36;11.10;;;1.92;;
23720;SDS011;42950;52.134;5.578;2022-12-29T09:11:21;16.00;;;2.95;;
23720;SDS011;42950;52.134;5.578;2022-12-29T09:13:48;8.73;;;2.05;;
23720;SDS011;42950;52.134;5.578;2022-12-29T09:16:15;15.98;;;2.33;;
23720;SDS011;42950;52.134;5.578;2022-12-29T09:18:42;11.98;;;2.13;;
23720;SDS011;42950;52.134;5.578;2022-12-29T09:21:09;15.27;;;2.53;;
23720;SDS011;42950;52.134;5.578;2022-12-29T09:23:35;10.10;;;2.22;;
23720;SDS011;42950;52.134;5.578;2022-12-29T09:26:02;12.57;;;2.35;;
23720;SDS011;42950;52.134;5.578;2022-12-29T09:28:28;15.90;;;2.95;;
23720;SDS011;42950;52.134;5.578;2022-12-29T09:30:54;11.65;;;2.33;;
23720;SDS011;42950;52.134;5.578;2022-12-29T09:33:20;8.63;;;1.80;;
23720;SDS011;42950;52.134;5.578;2022-12-29T09:35:50;14.02;;;2.55;;
23720;SDS011;42950;52.134;5.578;2022-12-29T09:38:20;15.75;;;2.72;;
23720;SDS011;42950;52.134;5.578;2022-12-29T09:40:54;10.82;;;1.85;;
23720;SDS011;42950;52.134;5.578;2022-12-29T09:48:53;16.13;;;2.03;;
23720;SDS011;42950;52.134;5.578;2022-12-29T09:51:24;12.25;;;2.58;;
23720;SDS011;42950;52.134;5.578;2022-12-29T09:53:56;10.00;;;2.17;;
23720;SDS011;42950;52.134;5.578;2022-12-29T09:56:25;12.68;;;2.58;;
23720;SDS011;42950;52.134;5.578;2022-12-29T09:58:59;11.00;;;2.40;;
23720;SDS011;42950;52.134;5.578;2022-12-29T10:04:18;12.65;;;2.20;;
23720;SDS011;42950;52.134;5.578;2022-12-29T10:07:10;7.68;;;1.90;;
23720;SDS011;42950;52.134;5.578;2022-12-29T10:20:47;11.73;;;1.83;;
23720;SDS011;42950;52.134;5.578;2022-12-29T10:26:20;7.68;;;1.58;;
23720;SDS011;42950;52.134;5.578;2022-12-29T10:28:53;11.68;;;2.38;;
23720;SDS011;42950;52.134;5.578;2022-12-29T10:31:24;10.00;;;2.35;;
23720;SDS011;42950;52.134;5.578;2022-12-29T10:34:01;10.15;;;2.08;;
23720;SDS011;42950;52.134;5.578;2022-12-29T10:36:39;9.35;;;2.10;;
23720;SDS011;42950;52.134;5.578;2022-12-29T10:39:49;9.23;;;2.30;;
23720;SDS011;42950;52.134;5.578;2022-12-29T10:42:03;8.48;;;2.30;;
23720;SDS011;42950;52.134;5.578;2022-12-29T10:44:30;10.63;;;2.33;;
23720;SDS011;42950;52.134;5.578;2022-12-29T10:46:58;9.95;;;2.15;;
23720;SDS011;42950;52.134;5.578;2022-12-29T10:49:26;12.00;;;2.85;;
23720;SDS011;42950;52.134;5.578;2022-12-29T10:51:57;10.75;;;2.97;;
23720;SDS011;42950;52.134;5.578;2022-12-29T10:59:52;10.98;;;3.30;;
23720;SDS011;42950;52.134;5.578;2022-12-29T11:05:02;13.23;;;2.97;;
23720;SDS011;42950;52.134;5.578;2022-12-29T11:07:37;19.00;;;3.63;;
23720;SDS011;42950;52.134;5.578;2022-12-29T11:13:00;17.15;;;3.70;;
23720;SDS011;42950;52.134;5.578;2022-12-29T11:15:37;16.52;;;3.72;;
23720;SDS011;42950;52.134;5.578;2022-12-29T11:18:18;17.25;;;4.20;;
23720;SDS011;42950;52.134;5.578;2022-12-29T11:20:54;17.70;;;3.65;;
23720;SDS011;42950;52.134;5.578;2022-12-29T11:28:42;17.25;;;3.90;;
23720;SDS011;42950;52.134;5.578;2022-12-29T11:31:09;18.58;;;3.65;;
23720;SDS011;42950;52.134;5.578;2022-12-29T11:33:36;19.65;;;4.07;;
23720;SDS011;42950;52.134;5.578;2022-12-29T11:36:16;21.88;;;4.20;;
23720;SDS011;42950;52.134;5.578;2022-12-29T11:38:49;13.25;;;2.95;;
23720;SDS011;42950;52.134;5.578;2022-12-29T11:41:26;12.05;;;3.15;;
23720;SDS011;42950;52.134;5.578;2022-12-29T11:43:55;17.88;;;4.05;;
23720;SDS011;42950;52.134;5.578;2022-12-29T11:46:27;20.42;;;4.25;;
23720;SDS011;42950;52.134;5.578;2022-12-29T11:48:56;16.50;;;3.85;;
23720;SDS011;42950;52.134;5.578;2022-12-29T11:51:39;20.73;;;3.38;;
23720;SDS011;42950;52.134;5.578;2022-12-29T11:54:15;16.00;;;4.05;;
23720;SDS011;42950;52.134;5.578;2022-12-29T11:56:45;16.73;;;3.85;;
23720;SDS011;42950;52.134;5.578;2022-12-29T12:01:53;16.00;;;3.65;;
23720;SDS011;42950;52.134;5.578;2022-12-29T12:04:29;15.40;;;3.25;;
23720;SDS011;42950;52.134;5.578;2022-12-29T12:07:03;15.32;;;3.17;;
23720;SDS011;42950;52.134;5.578;2022-12-29T12:14:59;13.23;;;2.83;;
23720;SDS011;42950;52.134;5.578;2022-12-29T12:20:31;13.73;;;3.03;;
23720;SDS011;42950;52.134;5.578;2022-12-29T12:26:49;16.00;;;3.67;;
23720;SDS011;42950;52.134;5.578;2022-12-29T12:31:57;14.18;;;3.63;;
23720;SDS011;42950;52.134;5.578;2022-12-29T12:34:37;14.80;;;3.53;;
23720;SDS011;42950;52.134;5.578;2022-12-29T12:37:13;23.63;;;4.03;;
23720;SDS011;42950;52.134;5.578;2022-12-29T12:39:47;21.85;;;4.13;;
23720;SDS011;42950;52.134;5.578;2022-12-29T12:48:05;26.30;;;6.40;;
23720;SDS011;42950;52.134;5.578;2022-12-29T12:59:14;22.90;;;4.10;;
23720;SDS011;42950;52.134;5.578;2022-12-29T13:02:08;18.40;;;3.53;;
23720;SDS011;42950;52.134;5.578;2022-12-29T13:08:08;21.40;;;4.10;;
23720;SDS011;42950;52.134;5.578;2022-12-29T13:10:41;15.55;;;3.50;;
23720;SDS011;42950;52.134;5.578;2022-12-29T13:19:03;15.85;;;3.58;;
23720;SDS011;42950;52.134;5.578;2022-12-29T13:27:09;18.48;;;3.85;;
23720;SDS011;42950;52.134;5.578;2022-12-29T13:40:40;20.20;;;4.10;;
23720;SDS011;42950;52.134;5.578;2022-12-29T13:43:09;14.45;;;3.60;;
23720;SDS011;42950;52.134;5.578;2022-12-29T13:45:38;13.80;;;3.28;;
23720;SDS011;42950;52.134;5.578;2022-12-29T13:48:07;21.23;;;4.57;;
23720;SDS011;42950;52.134;5.578;2022-12-29T13:50:40;17.98;;;4.00;;
23720;SDS011;42950;52.134;5.578;2022-12-29T13:53:19;14.45;;;3.78;;
23720;SDS011;42950;52.134;5.578;2022-12-29T13:55:56;16.77;;;3.40;;
23720;SDS011;42950;52.134;5.578;2022-12-29T14:04:12;19.45;;;4.53;;
23720;SDS011;42950;52.134;5.578;2022-12-29T14:06:39;15.88;;;4.28;;
23720;SDS011;42950;52.134;5.578;2022-12-29T14:15:02;14.40;;;3.28;;
23720;SDS011;42950;52.134;5.578;2022-12-29T14:17:29;17.95;;;3.03;;
23720;SDS011;42950;52.134;5.578;2022-12-29T14:19:55;13.45;;;2.40;;
23720;SDS011;42950;52.134;5.578;2022-12-29T14:22:24;11.25;;;2.80;;
23720;SDS011;42950;52.134;5.578;2022-12-29T14:24:51;13.85;;;2.72;;
23720;SDS011;42950;52.134;5.578;2022-12-29T14:29:44;12.63;;;2.40;;
23720;SDS011;42950;52.134;5.578;2022-12-29T14:34:45;7.57;;;1.88;;
23720;SDS011;42950;52.134;5.578;2022-12-29T14:40:14;4.28;;;1.45;;
23720;SDS011;42950;52.134;5.578;2022-12-29T14:42:42;5.63;;;1.50;;
23720;SDS011;42950;52.134;5.578;2022-12-29T14:45:24;5.50;;;1.67;;
23720;SDS011;42950;52.134;5.578;2022-12-29T14:47:53;5.60;;;1.13;;
23720;SDS011;42950;52.134;5.578;2022-12-29T14:53:54;4.65;;;1.00;;
23720;SDS011;42950;52.134;5.578;2022-12-29T14:56:08;4.70;;;1.10;;
23720;SDS011;42950;52.134;5.578;2022-12-29T14:58:41;5.72;;;1.27;;
23720;SDS011;42950;52.134;5.578;2022-12-29T15:01:18;6.75;;;1.45;;
23720;SDS011;42950;52.134;5.578;2022-12-29T15:04:05;5.05;;;1.35;;
23720;SDS011;42950;52.134;5.578;2022-12-29T15:06:39;5.32;;;1.60;;
23720;SDS011;42950;52.134;5.578;2022-12-29T15:11:54;7.90;;;2.90;;
23720;SDS011;42950;52.134;5.578;2022-12-29T15:14:29;9.38;;;4.00;;
23720;SDS011;42950;52.134;5.578;2022-12-29T15:16:54;7.38;;;2.60;;
23720;SDS011;42950;52.134;5.578;2022-12-29T15:19:24;12.38;;;2.50;;
23720;SDS011;42950;52.134;5.578;2022-12-29T15:21:51;11.30;;;2.90;;
23720;SDS011;42950;52.134;5.578;2022-12-29T15:24:18;9.55;;;2.47;;
23720;SDS011;42950;52.134;5.578;2022-12-29T15:26:45;11.00;;;2.67;;
23720;SDS011;42950;52.134;5.578;2022-12-29T15:34:40;10.07;;;3.25;;
23720;SDS011;42950;52.134;5.578;2022-12-29T15:37:06;13.35;;;5.47;;
23720;SDS011;42950;52.134;5.578;2022-12-29T15:39:32;14.68;;;3.20;;
23720;SDS011;42950;52.134;5.578;2022-12-29T15:44:50;10.88;;;3.35;;
23720;SDS011;42950;52.134;5.578;2022-12-29T15:47:17;9.95;;;3.45;;
23720;SDS011;42950;52.134;5.578;2022-12-29T15:49:48;10.77;;;5.57;;
23720;SDS011;42950;52.134;5.578;2022-12-29T15:52:19;11.02;;;2.88;;
23720;SDS011;42950;52.134;5.578;2022-12-29T15:54:46;8.13;;;2.83;;
23720;SDS011;42950;52.134;5.578;2022-12-29T15:57:24;14.43;;;3.28;;
23720;SDS011;42950;52.134;5.578;2022-12-29T15:59:51;11.52;;;2.80;;
23720;SDS011;42950;52.134;5.578;2022-12-29T16:02:18;10.95;;;3.00;;
23720;SDS011;42950;52.134;5.578;2022-12-29T16:04:47;9.93;;;2.90;;
23720;SDS011;42950;52.134;5.578;2022-12-29T16:09:53;13.55;;;2.55;;
23720;SDS011;42950;52.134;5.578;2022-12-29T16:12:22;8.80;;;2.97;;
23720;SDS011;42950;52.134;5.578;2022-12-29T16:14:54;8.07;;;2.00;;
23720;SDS011;42950;52.134;5.578;2022-12-29T16:17:27;9.45;;;2.35;;
23720;SDS011;42950;52.134;5.578;2022-12-29T16:19:59;8.50;;;2.25;;
23720;SDS011;42950;52.134;5.578;2022-12-29T16:22:34;11.20;;;2.30;;
23720;SDS011;42950;52.134;5.578;2022-12-29T16:25:15;11.98;;;2.60;;
23720;SDS011;42950;52.134;5.578;2022-12-29T16:27:49;10.68;;;2.45;;
23720;SDS011;42950;52.134;5.578;2022-12-29T16:30:19;12.13;;;2.58;;
23720;SDS011;42950;52.134;5.578;2022-12-29T16:32:47;6.38;;;2.28;;
23720;SDS011;42950;52.134;5.578;2022-12-29T16:35:21;10.27;;;2.55;;
23720;SDS011;42950;52.134;5.578;2022-12-29T16:38:12;12.85;;;2.63;;
23720;SDS011;42950;52.134;5.578;2022-12-29T16:40:58;6.65;;;2.25;;
23720;SDS011;42950;52.134;5.578;2022-12-29T16:43:32;8.98;;;2.83;;
23720;SDS011;42950;52.134;5.578;2022-12-29T16:53:55;12.02;;;2.50;;
23720;SDS011;42950;52.134;5.578;2022-12-29T16:56:22;6.90;;;2.40;;
23720;SDS011;42950;52.134;5.578;2022-12-29T16:58:51;10.25;;;2.47;;
23720;SDS011;42950;52.134;5.578;2022-12-29T17:01:29;7.75;;;2.63;;
23720;SDS011;42950;52.134;5.578;2022-12-29T17:04:00;10.85;;;2.65;;
23720;SDS011;42950;52.134;5.578;2022-12-29T17:06:31;9.10;;;2.40;;
23720;SDS011;42950;52.134;5.578;2022-12-29T17:08:57;8.77;;;2.50;;
23720;SDS011;42950;52.134;5.578;2022-12-29T17:11:27;9.55;;;2.17;;
23720;SDS011;42950;52.134;5.578;2022-12-29T17:14:17;5.90;;;2.80;;
23720;SDS011;42950;52.134;5.578;2022-12-29T17:19:55;11.50;;;2.10;;
23720;SDS011;42950;52.134;5.578;2022-12-29T17:22:25;11.15;;;2.15;;
23720;SDS011;42950;52.134;5.578;2022-12-29T17:24:52;7.75;;;1.88;;
23720;SDS011;42950;52.134;5.578;2022-12-29T17:27:29;12.52;;;2.72;;
23720;SDS011;42950;52.134;5.578;2022-12-29T17:30:03;11.43;;;2.05;;
23720;SDS011;42950;52.134;5.578;2022-12-29T17:32:40;10.48;;;1.95;;
23720;SDS011;42950;52.134;5.578;2022-12-29T17:35:15;10.90;;;2.05;;
23720;SDS011;42950;52.134;5.578;2022-12-29T17:37:41;13.82;;;2.83;;
23720;SDS011;42950;52.134;5.578;2022-12-29T17:40:09;14.40;;;2.55;;
23720;SDS011;42950;52.134;5.578;2022-12-29T17:42:44;13.70;;;3.05;;
23720;SDS011;42950;52.134;5.578;2022-12-29T17:45:12;10.90;;;2.50;;
23720;SDS011;42950;52.134;5.578;2022-12-29T17:47:42;13.25;;;2.25;;
23720;SDS011;42950;52.134;5.578;2022-12-29T17:50:15;11.95;;;2.97;;
23720;SDS011;42950;52.134;5.578;2022-12-29T17:52:43;17.05;;;8.73;;
23720;SDS011;42950;52.134;5.578;2022-12-29T17:55:22;14.13;;;2.50;;
23720;SDS011;42950;52.134;5.578;2022-12-29T17:57:48;15.80;;;2.67;;
23720;SDS011;42950;52.134;5.578;2022-12-29T18:00:15;11.02;;;2.28;;
23720;SDS011;42950;52.134;5.578;2022-12-29T18:02:42;9.85;;;2.30;;
23720;SDS011;42950;52.134;5.578;2022-12-29T18:05:13;8.25;;;2.13;;
23720;SDS011;42950;52.134;5.578;2022-12-29T18:08:08;12.18;;;2.53;;
23720;SDS011;42950;52.134;5.578;2022-12-29T18:10:36;12.32;;;2.60;;
23720;SDS011;42950;52.134;5.578;2022-12-29T18:13:02;10.63;;;2.20;;